Time;durP1;ratioP1;P1;durP2;ratioP2;P2;SDS_P1;SDS_P2;PMS_P1;PMS_P2;Temp;Humidity;BMP_temperature;BMP_pressure;BME280_temperature;BME280_humidity;BME280_pressure;Samples;Min_cycle;Max_cycle;Signal;HPM_P1;HPM_P2
2023/07/22 00:02:22;;;;;;;10.32;6.85;;;12.90;99.90;;;;;;4899023;29;20036;-32
2023/07/22 00:04:49;;;;;;;13.05;7.47;;;12.90;99.90;;;;;;4894677;29;20164;-32
2023/07/22 00:07:15;;;;;;;12.63;7.57;;;12.90;99.90;;;;;;4896798;29;20036;-32
2023/07/22 00:09:41;;;;;;;12.48;7.90;;;12.90;99.90;;;;;;4883563;29;20043;-32
2023/07/22 00:12:08;;;;;;;13.05;7.53;;;12.90;99.90;;;;;;4894419;29;20029;-32
2023/07/22 00:14:36;;;;;;;10.20;6.57;;;12.90;99.90;;;;;;4877942;29;20382;-32
2023/07/22 00:17:02;;;;;;;9.75;6.65;;;12.90;99.90;;;;;;4902004;29;20068;-32
2023/07/22 00:19:27;;;;;;;12.23;6.93;;;12.90;99.90;;;;;;4900810;29;20045;-32
2023/07/22 00:21:53;;;;;;;10.75;7.22;;;13.00;99.90;;;;;;4893816;29;20049;-32
2023/07/22 00:24:19;;;;;;;11.93;7.55;;;12.90;99.90;;;;;;4898520;29;20032;-32
2023/07/22 00:26:44;;;;;;;14.82;7.82;;;12.90;99.90;;;;;;4896496;29;20114;-32
2023/07/22 00:29:10;;;;;;;12.18;7.40;;;12.90;99.90;;;;;;4903204;29;20068;-32
2023/07/22 00:31:36;;;;;;;13.00;8.05;;;12.90;99.90;;;;;;4892704;29;20033;-32
2023/07/22 00:34:01;;;;;;;10.82;7.18;;;12.90;99.90;;;;;;4897291;29;20036;-32
2023/07/22 00:36:28;;;;;;;10.38;7.90;;;12.80;99.90;;;;;;4884420;29;20056;-32
2023/07/22 00:38:54;;;;;;;11.45;7.55;;;12.80;99.90;;;;;;4895303;29;20044;-32
2023/07/22 00:41:20;;;;;;;10.90;6.88;;;12.80;99.90;;;;;;4894917;29;20380;-32
2023/07/22 00:43:46;;;;;;;12.45;7.60;;;12.80;99.90;;;;;;4895003;29;20044;-32
2023/07/22 00:46:12;;;;;;;14.10;8.10;;;12.70;99.90;;;;;;4902865;29;20044;-32
2023/07/22 00:48:38;;;;;;;12.25;7.95;;;12.70;99.90;;;;;;4901155;29;20051;-32
2023/07/22 00:51:05;;;;;;;14.02;7.50;;;12.70;99.90;;;;;;4894653;29;20256;-34
2023/07/22 00:53:31;;;;;;;14.13;8.10;;;12.70;99.90;;;;;;4892989;29;20052;-32
2023/07/22 00:55:56;;;;;;;14.45;7.57;;;12.60;99.90;;;;;;4895102;29;20051;-32
2023/07/22 00:58:22;;;;;;;13.70;8.57;;;12.60;99.90;;;;;;4861507;29;20532;-32
2023/07/22 01:00:48;;;;;;;11.35;7.55;;;12.50;99.90;;;;;;4891216;29;20041;-32
2023/07/22 01:03:14;;;;;;;13.23;8.10;;;12.50;99.90;;;;;;4880660;29;20048;-32
2023/07/22 01:05:41;;;;;;;12.52;7.95;;;12.40;99.90;;;;;;4894119;29;20091;-32
2023/07/22 01:08:07;;;;;;;14.57;7.93;;;12.30;99.90;;;;;;4894757;29;20043;-32
2023/07/22 01:10:33;;;;;;;12.55;7.53;;;12.30;99.90;;;;;;4892102;29;20044;-32
2023/07/22 01:12:59;;;;;;;13.85;8.02;;;12.30;99.90;;;;;;4894123;29;20039;-32
2023/07/22 01:15:25;;;;;;;12.85;7.82;;;12.20;99.90;;;;;;4894286;29;20223;-32
2023/07/22 01:17:52;;;;;;;13.50;8.10;;;12.20;99.90;;;;;;4900767;29;20077;-32
2023/07/22 01:20:19;;;;;;;11.80;7.68;;;12.20;99.90;;;;;;4902088;29;20566;-32
2023/07/22 01:22:54;;;;;;;13.90;8.48;;;12.20;99.90;;;;;;4893187;29;20060;-32
2023/07/22 01:25:21;;;;;;;14.77;8.43;;;12.10;99.90;;;;;;4873858;29;20483;-32
2023/07/22 01:27:48;;;;;;;10.95;8.55;;;12.20;99.90;;;;;;4894122;29;20039;-32
2023/07/22 01:30:14;;;;;;;14.60;8.55;;;12.20;99.90;;;;;;4899379;29;20045;-32
2023/07/22 01:32:40;;;;;;;14.15;9.27;;;12.20;99.90;;;;;;4900656;29;20376;-32
2023/07/22 01:35:07;;;;;;;13.55;8.23;;;12.20;99.90;;;;;;4895337;29;20562;-32
2023/07/22 01:37:33;;;;;;;16.58;8.55;;;12.30;99.90;;;;;;4893765;29;20131;-32
2023/07/22 01:39:59;;;;;;;12.85;8.15;;;12.20;99.90;;;;;;4890483;29;20108;-32
2023/07/22 01:42:25;;;;;;;13.27;8.02;;;12.30;99.90;;;;;;4887818;29;20040;-32
2023/07/22 01:44:51;;;;;;;14.57;8.63;;;12.30;99.90;;;;;;4897477;29;20363;-32
2023/07/22 01:47:17;;;;;;;14.60;7.80;;;12.40;99.90;;;;;;4891500;29;20096;-32
2023/07/22 01:49:44;;;;;;;12.85;8.40;;;12.40;99.90;;;;;;4899566;29;20450;-32
2023/07/22 01:52:10;;;;;;;14.40;9.15;;;12.40;99.90;;;;;;4897924;29;20044;-34
2023/07/22 01:54:36;;;;;;;14.48;9.38;;;12.40;99.90;;;;;;4895825;29;20043;-36
2023/07/22 01:57:02;;;;;;;14.02;8.93;;;12.40;99.90;;;;;;4896619;29;20566;-33
2023/07/22 01:59:27;;;;;;;13.20;8.05;;;12.40;99.90;;;;;;4892619;29;20389;-33
2023/07/22 02:01:53;;;;;;;15.60;8.60;;;12.50;99.90;;;;;;4883694;29;20048;-33
2023/07/22 02:04:19;;;;;;;13.10;8.40;;;12.50;99.90;;;;;;4898068;29;20051;-32
2023/07/22 02:06:44;;;;;;;12.52;8.07;;;12.50;99.90;;;;;;4891244;29;20043;-32
2023/07/22 02:09:13;;;;;;;14.68;8.20;;;12.50;99.90;;;;;;4888742;29;20036;-32
2023/07/22 02:11:39;;;;;;;14.07;8.68;;;12.50;99.90;;;;;;4892909;29;20041;-32
2023/07/22 02:14:06;;;;;;;11.38;7.93;;;12.50;99.90;;;;;;4893178;29;20514;-32
2023/07/22 02:16:35;;;;;;;13.38;8.65;;;12.50;99.90;;;;;;4893635;29;20046;-33
2023/07/22 02:19:00;;;;;;;13.68;7.80;;;12.50;99.90;;;;;;4898264;29;20528;-32
2023/07/22 02:21:26;;;;;;;13.27;8.27;;;12.50;99.90;;;;;;4883753;29;20053;-33
2023/07/22 02:23:53;;;;;;;15.05;9.27;;;12.50;99.90;;;;;;4892704;29;20495;-32
2023/07/22 02:26:19;;;;;;;11.90;8.45;;;12.60;99.90;;;;;;4893073;29;20031;-32
2023/07/22 02:28:46;;;;;;;16.80;9.48;;;12.50;99.90;;;;;;4893783;29;20463;-32
2023/07/22 02:31:12;;;;;;;16.67;9.30;;;12.50;99.90;;;;;;4893008;29;20040;-33
2023/07/22 02:33:38;;;;;;;16.55;8.77;;;12.60;99.90;;;;;;4893695;29;20040;-33
2023/07/22 02:36:03;;;;;;;13.55;8.70;;;12.60;99.90;;;;;;4896438;29;20036;-33
2023/07/22 02:38:29;;;;;;;17.60;8.93;;;12.60;99.90;;;;;;4891361;29;20044;-32
2023/07/22 02:40:55;;;;;;;15.50;9.45;;;12.50;99.90;;;;;;4896304;29;20047;-32
2023/07/22 02:43:21;;;;;;;14.02;9.32;;;12.60;99.90;;;;;;4884867;29;20397;-33
2023/07/22 02:45:47;;;;;;;16.80;9.68;;;12.50;99.90;;;;;;4897337;29;20499;-33
2023/07/22 02:48:13;;;;;;;16.38;9.07;;;12.60;99.90;;;;;;4897064;29;20483;-33
2023/07/22 02:50:39;;;;;;;17.23;10.23;;;12.60;99.90;;;;;;4892125;29;20045;-33
2023/07/22 02:53:05;;;;;;;17.13;10.60;;;12.60;99.90;;;;;;4903371;29;20039;-33
2023/07/22 02:55:31;;;;;;;14.77;9.57;;;12.60;99.90;;;;;;4896487;29;20079;-33
2023/07/22 02:57:56;;;;;;;16.48;10.60;;;12.60;99.90;;;;;;4896636;29;20076;-33
2023/07/22 03:00:25;;;;;;;20.10;11.07;;;12.60;99.90;;;;;;4896147;29;20041;-33
2023/07/22 03:03:00;;;;;;;20.63;10.88;;;12.60;99.90;;;;;;4889378;29;20397;-33
2023/07/22 03:05:30;;;;;;;16.98;10.27;;;12.60;99.90;;;;;;4897751;29;20051;-33
2023/07/22 03:07:56;;;;;;;17.90;11.07;;;12.60;99.90;;;;;;4893044;29;20459;-32
2023/07/22 03:10:22;;;;;;;16.17;10.05;;;12.60;99.90;;;;;;4895659;29;20398;-33
2023/07/22 03:12:48;;;;;;;18.52;10.65;;;12.70;99.90;;;;;;4891995;29;20041;-32
2023/07/22 03:15:14;;;;;;;19.38;11.18;;;12.70;99.90;;;;;;4897751;29;20032;-33
2023/07/22 03:17:43;;;;;;;16.15;10.23;;;12.70;99.90;;;;;;4896125;29;20063;-33
2023/07/22 03:20:16;;;;;;;16.90;10.30;;;12.60;99.90;;;;;;4892818;29;20041;-33
2023/07/22 03:22:43;;;;;;;19.30;11.30;;;12.70;99.90;;;;;;4888232;29;20040;-33
2023/07/22 03:25:10;;;;;;;16.23;11.30;;;12.70;99.90;;;;;;4896151;29;20542;-32
2023/07/22 03:27:36;;;;;;;18.42;11.07;;;12.70;99.90;;;;;;4895170;29;20096;-33
2023/07/22 03:30:04;;;;;;;16.75;10.93;;;12.70;99.90;;;;;;4896153;29;20045;-33
2023/07/22 03:32:30;;;;;;;16.52;10.88;;;12.70;99.90;;;;;;4901497;29;20041;-33
2023/07/22 03:34:55;;;;;;;19.38;10.85;;;12.80;99.90;;;;;;4888907;29;20120;-33
2023/07/22 03:37:21;;;;;;;16.98;10.27;;;12.80;99.90;;;;;;4897421;29;20415;-32
2023/07/22 03:39:47;;;;;;;16.17;10.23;;;12.80;99.90;;;;;;4895384;29;20177;-33
2023/07/22 03:42:12;;;;;;;16.27;10.00;;;12.80;99.90;;;;;;4878782;29;20056;-33
2023/07/22 03:44:40;;;;;;;19.88;10.93;;;12.80;99.90;;;;;;4896737;29;20056;-33
2023/07/22 03:47:06;;;;;;;14.07;9.82;;;12.80;99.90;;;;;;4894691;29;20479;-33
2023/07/22 03:49:32;;;;;;;13.65;9.32;;;12.90;99.90;;;;;;4895778;29;20044;-33
2023/07/22 03:51:57;;;;;;;16.83;10.65;;;12.90;99.90;;;;;;4893420;29;20041;-33
2023/07/22 03:54:23;;;;;;;18.92;10.63;;;12.90;99.90;;;;;;4895079;29;20506;-33
2023/07/22 03:56:49;;;;;;;15.85;10.73;;;12.90;99.90;;;;;;4897091;29;20080;-33
2023/07/22 03:59:16;;;;;;;16.45;10.30;;;12.90;99.90;;;;;;4900494;29;20052;-33
2023/07/22 04:01:42;;;;;;;16.05;10.38;;;12.90;99.90;;;;;;4899440;29;20047;-33
2023/07/22 04:04:08;;;;;;;15.32;10.35;;;12.90;99.90;;;;;;4895841;29;20050;-33
2023/07/22 04:06:33;;;;;;;13.20;9.50;;;12.90;99.90;;;;;;4897646;29;20135;-33
2023/07/22 04:09:00;;;;;;;20.77;11.05;;;12.90;99.90;;;;;;4896725;29;20041;-33
2023/07/22 04:11:26;;;;;;;17.17;9.20;;;13.00;99.90;;;;;;4881547;29;20112;-33
2023/07/22 04:13:53;;;;;;;16.67;9.70;;;13.00;99.90;;;;;;4880472;29;20490;-33
2023/07/22 04:16:18;;;;;;;13.07;9.10;;;13.00;99.90;;;;;;4901398;29;20412;-33
2023/07/22 04:18:44;;;;;;;14.93;9.65;;;13.10;99.90;;;;;;4893973;29;20037;-32
2023/07/22 04:21:09;;;;;;;16.67;11.15;;;13.10;99.90;;;;;;4894397;29;20495;-33
2023/07/22 04:23:35;;;;;;;16.70;10.55;;;13.20;99.90;;;;;;4889997;29;20055;-33
2023/07/22 04:26:07;;;;;;;15.75;10.10;;;13.20;99.90;;;;;;4886713;29;20549;-33
2023/07/22 04:28:34;;;;;;;15.02;9.27;;;13.30;99.90;;;;;;4894480;29;20053;-33
2023/07/22 04:31:00;;;;;;;13.98;9.73;;;13.30;99.90;;;;;;4887941;29;20045;-33
2023/07/22 04:33:27;;;;;;;13.93;9.40;;;13.40;99.90;;;;;;4900915;29;20052;-33
2023/07/22 04:35:55;;;;;;;15.40;9.55;;;13.30;99.90;;;;;;4894635;29;20091;-33
2023/07/22 04:38:21;;;;;;;13.20;8.90;;;13.40;99.90;;;;;;4897949;29;20095;-33
2023/07/22 04:40:47;;;;;;;12.57;9.45;;;13.40;99.90;;;;;;4871726;29;20082;-33
2023/07/22 04:43:13;;;;;;;16.15;10.60;;;13.50;99.90;;;;;;4895956;29;20092;-33
2023/07/22 04:45:40;;;;;;;17.15;9.60;;;13.50;99.90;;;;;;4878200;29;20052;-33
2023/07/22 04:48:06;;;;;;;16.23;9.95;;;13.50;99.90;;;;;;4896043;29;20040;-33
2023/07/22 04:50:32;;;;;;;15.85;10.13;;;13.50;99.90;;;;;;4890517;29;20048;-33
2023/07/22 04:52:58;;;;;;;14.07;9.25;;;13.60;99.90;;;;;;4894628;29;20043;-33
2023/07/22 04:55:24;;;;;;;15.20;9.95;;;13.60;99.90;;;;;;4887537;29;20399;-33
2023/07/22 04:57:51;;;;;;;17.52;10.00;;;13.70;99.90;;;;;;4884424;29;20055;-33
2023/07/22 05:00:19;;;;;;;16.08;9.35;;;13.70;99.90;;;;;;4896460;29;20455;-32
2023/07/22 05:02:49;;;;;;;13.15;9.55;;;13.70;99.90;;;;;;4892090;29;20044;-33
2023/07/22 05:05:15;;;;;;;13.38;9.68;;;13.80;99.90;;;;;;4877454;29;20051;-33
2023/07/22 05:07:42;;;;;;;13.55;9.65;;;13.80;99.90;;;;;;4898613;29;20044;-33
2023/07/22 05:10:13;;;;;;;15.15;10.38;;;13.80;99.90;;;;;;4890548;29;20041;-33
2023/07/22 05:12:39;;;;;;;13.90;10.38;;;13.80;99.90;;;;;;4883298;29;20085;-33
2023/07/22 05:15:06;;;;;;;13.35;9.75;;;13.90;99.90;;;;;;4894140;29;20056;-33
2023/07/22 05:17:32;;;;;;;14.75;9.65;;;13.90;99.90;;;;;;4891090;29;20533;-32
2023/07/22 05:19:58;;;;;;;15.43;10.30;;;13.90;99.90;;;;;;4896356;29;20080;-35
2023/07/22 05:22:24;;;;;;;14.48;9.85;;;13.90;99.90;;;;;;4876253;29;20116;-35
2023/07/22 05:24:49;;;;;;;16.52;10.70;;;13.90;99.90;;;;;;4889011;29;20055;-35
2023/07/22 05:27:19;;;;;;;15.23;10.35;;;13.90;99.90;;;;;;4893882;29;20037;-37
2023/07/22 05:29:45;;;;;;;19.77;11.50;;;14.00;99.90;;;;;;4893828;29;20045;-34
2023/07/22 05:32:11;;;;;;;15.88;10.23;;;14.00;99.90;;;;;;4895853;29;20542;-34
2023/07/22 05:34:37;;;;;;;16.00;10.50;;;14.00;99.90;;;;;;4891445;29;20040;-34
2023/07/22 05:37:02;;;;;;;14.50;10.38;;;14.00;99.90;;;;;;4887566;29;20567;-35
2023/07/22 05:39:28;;;;;;;18.23;10.75;;;14.00;99.90;;;;;;4879236;29;20126;-35
2023/07/22 05:41:54;;;;;;;16.25;11.25;;;14.00;99.90;;;;;;4890371;29;20056;-35
2023/07/22 05:44:20;;;;;;;20.55;11.70;;;14.00;99.90;;;;;;4891261;29;20036;-38
2023/07/22 05:46:45;;;;;;;18.40;12.35;;;14.00;99.90;;;;;;4892099;29;20116;-34
2023/07/22 05:49:11;;;;;;;17.15;10.82;;;14.00;99.90;;;;;;4897699;29;20093;-34
2023/07/22 05:51:37;;;;;;;17.17;11.80;;;14.00;99.90;;;;;;4876041;29;20474;-34
2023/07/22 05:54:03;;;;;;;18.98;12.30;;;14.10;99.90;;;;;;4879316;29;20097;-34
2023/07/22 05:56:29;;;;;;;18.15;11.75;;;14.10;99.90;;;;;;4899163;29;20387;-35
2023/07/22 05:58:54;;;;;;;20.40;11.50;;;14.00;99.90;;;;;;4888259;29;20041;-34
2023/07/22 06:01:21;;;;;;;19.08;12.90;;;14.10;99.90;;;;;;4877706;29;20048;-37
2023/07/22 06:03:47;;;;;;;20.35;13.82;;;14.20;99.90;;;;;;4893228;29;20451;-35
2023/07/22 06:06:13;;;;;;;20.85;13.27;;;14.20;99.90;;;;;;4892423;29;20048;-35
2023/07/22 06:08:39;;;;;;;19.77;12.13;;;14.30;99.90;;;;;;4894060;29;20044;-35
2023/07/22 06:11:05;;;;;;;19.85;12.80;;;14.30;99.90;;;;;;4891471;29;20096;-37
2023/07/22 06:13:31;;;;;;;20.55;13.77;;;14.40;99.90;;;;;;4889327;29;20044;-37
2023/07/22 06:15:56;;;;;;;18.13;12.80;;;14.50;99.90;;;;;;4893940;29;20388;-38
2023/07/22 06:18:23;;;;;;;25.38;15.77;;;14.60;99.90;;;;;;4876835;29;20047;-34
2023/07/22 06:20:50;;;;;;;21.50;14.73;;;14.60;99.90;;;;;;4891097;29;20032;-38
2023/07/22 06:23:15;;;;;;;21.50;14.25;;;14.60;99.90;;;;;;4886878;29;20040;-35
2023/07/22 06:25:42;;;;;;;25.13;15.57;;;14.70;99.90;;;;;;4894891;29;20032;-36
2023/07/22 06:28:08;;;;;;;21.17;13.88;;;14.70;99.90;;;;;;4879582;29;20044;-35
2023/07/22 06:30:33;;;;;;;20.90;14.25;;;14.80;99.90;;;;;;4891525;29;20136;-34
2023/07/22 06:32:59;;;;;;;23.30;14.82;;;14.80;99.90;;;;;;4891291;29;20234;-36
2023/07/22 06:35:25;;;;;;;22.52;14.68;;;14.80;99.90;;;;;;4890887;29;20040;-39
2023/07/22 06:37:50;;;;;;;27.95;16.13;;;14.80;99.90;;;;;;4894756;29;20138;-35
2023/07/22 06:40:16;;;;;;;22.40;15.05;;;14.80;99.90;;;;;;4878653;29;20234;-35
2023/07/22 06:42:42;;;;;;;24.98;16.38;;;14.90;99.90;;;;;;4890433;29;20510;-35
2023/07/22 06:45:08;;;;;;;27.40;16.30;;;15.00;99.90;;;;;;4892789;29;20036;-35
2023/07/22 06:47:36;;;;;;;23.55;15.57;;;15.00;99.90;;;;;;4894979;29;20494;-35
2023/07/22 06:50:05;;;;;;;23.83;16.15;;;15.00;99.90;;;;;;4892923;29;20380;-38
2023/07/22 06:52:33;;;;;;;22.45;14.88;;;15.00;99.90;;;;;;4881578;29;20037;-35
2023/07/22 06:54:59;;;;;;;26.00;17.48;;;15.00;99.90;;;;;;4884378;29;20085;-35
2023/07/22 06:57:28;;;;;;;23.92;16.38;;;15.10;99.90;;;;;;4886063;29;20041;-34
2023/07/22 06:59:54;;;;;;;25.40;16.20;;;15.20;99.90;;;;;;4892897;29;20051;-38
2023/07/22 07:02:21;;;;;;;25.98;16.85;;;15.20;99.90;;;;;;4893886;29;20045;-36
2023/07/22 07:04:46;;;;;;;27.60;17.83;;;15.30;99.90;;;;;;4892071;29;20036;-35
2023/07/22 07:07:13;;;;;;;24.13;16.77;;;15.40;99.90;;;;;;4896307;29;20041;-35
2023/07/22 07:09:39;;;;;;;25.73;16.23;;;15.50;99.90;;;;;;4890525;29;20040;-37
2023/07/22 07:12:05;;;;;;;23.48;16.45;;;15.60;99.90;;;;;;4890423;29;20045;-35
2023/07/22 07:14:33;;;;;;;24.30;16.73;;;15.70;99.90;;;;;;4893006;29;20040;-35
2023/07/22 07:16:59;;;;;;;23.23;16.20;;;15.70;99.90;;;;;;4890259;29;20044;-35
2023/07/22 07:19:25;;;;;;;25.00;16.55;;;15.90;99.90;;;;;;4884273;29;20076;-35
2023/07/22 07:21:51;;;;;;;24.33;16.33;;;16.00;99.90;;;;;;4889321;29;20347;-35
2023/07/22 07:24:17;;;;;;;26.27;16.25;;;16.10;99.90;;;;;;4897878;29;20040;-35
2023/07/22 07:26:43;;;;;;;22.48;15.68;;;16.20;99.90;;;;;;4899459;29;20040;-35
2023/07/22 07:29:09;;;;;;;24.50;16.60;;;16.30;99.90;;;;;;4877799;29;20077;-38
2023/07/22 07:31:35;;;;;;;24.02;16.27;;;16.40;99.90;;;;;;4894524;29;20068;-39
2023/07/22 07:34:01;;;;;;;20.52;15.52;;;16.50;99.90;;;;;;4899716;29;20081;-34
2023/07/22 07:36:26;;;;;;;19.50;14.43;;;16.60;99.90;;;;;;4895378;29;20048;-35
2023/07/22 07:38:52;;;;;;;21.17;15.02;;;16.50;99.90;;;;;;4894236;29;20099;-35
2023/07/22 07:41:18;;;;;;;22.70;15.43;;;16.60;99.90;;;;;;4893535;29;20037;-35
2023/07/22 07:43:44;;;;;;;20.45;14.35;;;16.60;99.90;;;;;;4889032;29;20510;-35
2023/07/22 07:46:20;;;;;;;24.77;16.40;;;16.70;99.90;;;;;;4893701;29;20040;-35
2023/07/22 07:48:51;;;;;;;21.65;14.60;;;16.70;99.90;;;;;;4877368;29;20052;-35
2023/07/22 07:51:18;;;;;;;22.65;14.98;;;16.70;99.90;;;;;;4892862;29;20584;-38
2023/07/22 07:53:45;;;;;;;21.45;14.95;;;16.80;99.90;;;;;;4892715;29;20123;-35
2023/07/22 07:56:11;;;;;;;21.33;14.38;;;16.90;99.90;;;;;;4891179;29;20328;-35
2023/07/22 07:58:37;;;;;;;17.42;13.05;;;17.00;99.90;;;;;;4897025;29;20521;-38
2023/07/22 08:01:04;;;;;;;20.38;14.13;;;17.20;99.90;;;;;;4889031;29;20046;-39
2023/07/22 08:03:30;;;;;;;20.30;14.35;;;17.30;99.90;;;;;;4893071;29;20442;-38
2023/07/22 08:05:55;;;;;;;19.00;13.65;;;17.40;99.90;;;;;;4891896;29;20040;-39
2023/07/22 08:08:22;;;;;;;19.00;13.27;;;17.50;99.90;;;;;;4885406;29;20512;-37
2023/07/22 08:10:58;;;;;;;18.77;13.40;;;17.60;99.90;;;;;;4892293;29;20041;-37
2023/07/22 08:13:24;;;;;;;18.58;13.07;;;17.70;99.90;;;;;;4878013;29;20349;-36
2023/07/22 08:15:49;;;;;;;16.55;12.77;;;17.70;99.90;;;;;;4898867;29;20045;-36
2023/07/22 08:18:15;;;;;;;17.33;12.52;;;17.70;99.90;;;;;;4891205;29;20115;-35
2023/07/22 08:20:41;;;;;;;15.60;12.45;;;17.80;99.90;;;;;;4894369;29;20436;-35
2023/07/22 08:23:07;;;;;;;15.93;12.25;;;17.90;99.90;;;;;;4901760;29;20036;-35
2023/07/22 08:25:32;;;;;;;14.23;11.15;;;18.10;99.90;;;;;;4900900;29;20040;-36
2023/07/22 08:27:58;;;;;;;18.30;12.80;;;18.20;99.90;;;;;;4900817;29;20115;-37
2023/07/22 08:30:24;;;;;;;16.70;12.32;;;18.30;99.90;;;;;;4895451;29;20045;-35
2023/07/22 08:32:49;;;;;;;17.10;12.60;;;18.50;99.90;;;;;;4894062;29;20097;-34
2023/07/22 08:35:17;;;;;;;16.52;12.15;;;18.50;99.90;;;;;;4899461;29;20093;-35
2023/07/22 08:37:43;;;;;;;15.77;11.75;;;18.50;99.90;;;;;;4900976;29;20052;-35
2023/07/22 08:40:10;;;;;;;17.65;11.90;;;18.60;99.90;;;;;;4900846;29;20100;-36
2023/07/22 08:42:37;;;;;;;14.77;11.63;;;18.70;99.90;;;;;;4896336;29;20041;-35
2023/07/22 08:45:05;;;;;;;14.48;10.93;;;18.80;99.90;;;;;;4894109;29;20422;-36
2023/07/22 08:47:32;;;;;;;13.80;10.70;;;19.10;99.90;;;;;;4893604;29;20045;-35
2023/07/22 08:50:01;;;;;;;15.35;10.82;;;19.40;99.90;;;;;;4894973;29;20494;-35
2023/07/22 08:52:27;;;;;;;14.25;11.48;;;19.80;99.90;;;;;;4897163;29;20450;-36
2023/07/22 08:54:54;;;;;;;17.30;11.75;;;19.90;99.90;;;;;;4877827;29;20127;-39
2023/07/22 08:57:21;;;;;;;12.10;10.55;;;20.00;99.90;;;;;;4898722;29;20040;-36
2023/07/22 08:59:47;;;;;;;11.70;9.70;;;20.00;99.90;;;;;;4894059;29;20047;-39
2023/07/22 09:02:13;;;;;;;14.63;10.90;;;20.00;99.90;;;;;;4893214;29;20100;-36
2023/07/22 09:04:43;;;;;;;13.77;10.43;;;20.00;99.90;;;;;;4896306;29;20047;-36
2023/07/22 09:07:11;;;;;;;12.32;9.95;;;20.00;99.90;;;;;;4892928;29;20044;-36
2023/07/22 09:09:37;;;;;;;12.73;10.88;;;20.00;99.90;;;;;;4891134;29;20049;-39
2023/07/22 09:12:06;;;;;;;14.27;9.35;;;20.10;99.90;;;;;;4895563;29;20079;-38
2023/07/22 09:14:33;;;;;;;13.32;9.60;;;20.20;99.90;;;;;;4892307;29;20041;-37
2023/07/22 09:16:59;;;;;;;10.73;8.85;;;20.20;99.90;;;;;;4896179;29;20491;-35
2023/07/22 09:19:24;;;;;;;11.38;9.32;;;20.20;99.90;;;;;;4903239;29;20046;-37
2023/07/22 09:21:50;;;;;;;11.50;9.10;;;20.00;99.90;;;;;;4875862;29;20475;-36
2023/07/22 09:24:24;;;;;;;14.63;9.80;;;19.70;99.90;;;;;;4902373;29;20119;-36
2023/07/22 09:26:51;;;;;;;11.20;8.48;;;19.40;99.90;;;;;;4894476;29;20044;-36
2023/07/22 09:29:17;;;;;;;9.70;8.20;;;19.10;99.90;;;;;;4898325;29;20043;-35
2023/07/22 09:31:50;;;;;;;9.55;8.10;;;18.80;99.90;;;;;;4895896;29;20043;-35
2023/07/22 09:34:16;;;;;;;12.63;8.50;;;18.60;99.90;;;;;;4894257;29;20448;-35
2023/07/22 09:36:52;;;;;;;11.38;8.32;;;18.40;99.90;;;;;;4889424;29;20104;-37
2023/07/22 09:39:18;;;;;;;11.23;8.52;;;18.20;99.90;;;;;;4893402;29;20043;-36
2023/07/22 09:41:45;;;;;;;14.48;9.45;;;18.00;99.90;;;;;;4888746;29;20124;-36
2023/07/22 09:44:12;;;;;;;23.13;10.68;;;17.80;99.90;;;;;;4892238;29;20044;-35
2023/07/22 09:46:38;;;;;;;20.05;11.00;;;17.70;99.90;;;;;;4894016;29;20104;-35
2023/07/22 09:49:05;;;;;;;13.07;9.77;;;17.50;99.90;;;;;;4897627;29;20049;-35
2023/07/22 09:51:35;;;;;;;15.30;9.25;;;17.30;99.90;;;;;;4895156;29;20040;-35
2023/07/22 09:54:03;;;;;;;13.73;9.50;;;17.10;99.90;;;;;;4892176;29;20048;-35
2023/07/22 09:56:29;;;;;;;13.25;8.63;;;17.10;99.90;;;;;;4898584;29;20076;-35
2023/07/22 09:59:03;;;;;;;12.18;8.60;;;16.80;99.90;;;;;;4875156;29;20039;-35
2023/07/22 10:01:29;;;;;;;10.63;8.85;;;16.80;99.90;;;;;;4882582;29;20059;-35
2023/07/22 10:03:56;;;;;;;9.75;7.65;;;16.80;99.90;;;;;;4900028;29;20059;-36
2023/07/22 10:06:28;;;;;;;12.00;8.52;;;17.00;99.90;;;;;;4889143;29;20116;-35
2023/07/22 10:09:03;;;;;;;10.98;8.40;;;17.10;99.90;;;;;;4895338;29;20406;-35
2023/07/22 10:11:32;;;;;;;9.85;8.00;;;17.20;99.90;;;;;;4889360;29;20037;-36
2023/07/22 10:13:58;;;;;;;10.55;7.72;;;17.30;99.90;;;;;;4877297;29;20123;-35
2023/07/22 10:16:24;;;;;;;10.60;8.63;;;17.50;99.90;;;;;;4899953;29;20064;-35
2023/07/22 10:18:50;;;;;;;12.75;8.45;;;17.60;99.90;;;;;;4893333;29;20111;-35
2023/07/22 10:21:17;;;;;;;9.55;8.13;;;17.60;99.90;;;;;;4888114;29;20040;-35
2023/07/22 10:23:45;;;;;;;9.27;8.05;;;17.60;99.90;;;;;;4895190;29;20036;-35
2023/07/22 10:26:14;;;;;;;9.38;7.97;;;17.70;99.90;;;;;;4894122;29;20531;-39
2023/07/22 10:28:42;;;;;;;10.20;7.82;;;17.80;99.90;;;;;;4891115;29;20044;-35
2023/07/22 10:31:08;;;;;;;9.07;7.43;;;17.80;99.90;;;;;;4895004;29;20044;-36
2023/07/22 10:33:35;;;;;;;9.88;7.65;;;17.80;99.90;;;;;;4897380;29;20395;-35
2023/07/22 10:36:08;;;;;;;9.30;7.72;;;17.80;99.90;;;;;;4877636;29;20427;-35
2023/07/22 10:38:35;;;;;;;12.30;7.55;;;17.70;99.90;;;;;;4895343;29;20083;-35
2023/07/22 10:41:16;;;;;;;9.75;7.63;;;17.70;99.90;;;;;;4892499;29;20236;-35
2023/07/22 10:43:54;;;;;;;10.25;7.93;;;17.60;99.90;;;;;;4892149;29;20040;-36
2023/07/22 10:46:32;;;;;;;8.60;7.60;;;17.60;99.90;;;;;;4884947;29;20091;-38
2023/07/22 10:49:09;;;;;;;10.23;8.25;;;17.60;99.90;;;;;;4893147;29;20177;-38
2023/07/22 10:51:37;;;;;;;10.75;7.90;;;17.60;99.90;;;;;;4892024;29;20044;-35
2023/07/22 10:54:09;;;;;;;9.95;7.93;;;17.60;99.90;;;;;;4897504;29;20044;-35
2023/07/22 10:56:35;;;;;;;9.98;8.23;;;17.70;99.90;;;;;;4897304;29;20037;-37
2023/07/22 10:59:02;;;;;;;11.32;8.90;;;17.60;99.90;;;;;;4894474;29;20037;-36
2023/07/22 11:01:28;;;;;;;10.63;8.43;;;17.60;99.90;;;;;;4886349;29;20045;-37
2023/07/22 11:04:03;;;;;;;13.73;9.55;;;17.50;99.90;;;;;;4872774;29;20052;-36
2023/07/22 11:06:29;;;;;;;11.48;9.43;;;17.50;99.90;;;;;;4890072;29;20266;-36
2023/07/22 11:08:55;;;;;;;11.88;9.15;;;17.50;99.90;;;;;;4896474;29;20066;-35
2023/07/22 11:11:33;;;;;;;15.68;10.93;;;17.50;99.90;;;;;;4883874;29;20163;-36
2023/07/22 11:14:22;;;;;;;13.43;10.18;;;17.50;99.90;;;;;;4875489;29;20045;-35
2023/07/22 11:16:48;;;;;;;19.88;11.68;;;17.50;99.90;;;;;;4883754;29;20373;-35
2023/07/22 11:19:19;;;;;;;15.63;10.63;;;17.40;99.90;;;;;;4886842;29;20101;-34
2023/07/22 11:21:46;;;;;;;15.80;10.95;;;17.40;99.90;;;;;;4886919;29;20260;-37
2023/07/22 11:24:13;;;;;;;14.85;10.75;;;17.50;99.90;;;;;;4885716;29;20068;-35
2023/07/22 11:26:40;;;;;;;13.10;11.15;;;17.50;99.90;;;;;;4883400;29;20064;-36
2023/07/22 11:29:08;;;;;;;14.82;10.60;;;17.50;99.90;;;;;;4880376;29;20498;-36
2023/07/22 11:31:42;;;;;;;11.88;9.00;;;17.40;99.90;;;;;;4879336;29;20105;-35
2023/07/22 11:34:08;;;;;;;12.68;10.02;;;17.30;99.90;;;;;;4874825;29;20498;-35
2023/07/22 11:36:35;;;;;;;12.55;9.68;;;17.20;99.90;;;;;;4879510;29;20044;-35
2023/07/22 11:39:13;;;;;;;9.82;8.82;;;17.10;99.90;;;;;;4888434;29;20521;-37
2023/07/22 11:41:42;;;;;;;10.57;8.60;;;17.00;99.90;;;;;;4881816;29;20040;-35
2023/07/22 11:44:09;;;;;;;9.93;8.65;;;16.80;99.90;;;;;;4880958;29;20066;-35
2023/07/22 11:46:59;;;;;;;10.43;8.50;;;16.70;99.90;;;;;;4881986;29;20096;-38
2023/07/22 11:49:33;;;;;;;10.32;9.25;;;16.60;99.90;;;;;;4878642;29;20084;-35
2023/07/22 11:52:04;;;;;;;9.85;8.38;;;16.60;99.90;;;;;;4861731;29;20097;-35
2023/07/22 11:54:32;;;;;;;10.50;9.43;;;16.60;99.90;;;;;;4889820;29;20037;-35
2023/07/22 11:57:20;;;;;;;10.80;9.38;;;16.60;99.90;;;;;;4878898;29;20051;-35
2023/07/22 11:59:51;;;;;;;11.90;10.80;;;16.70;99.90;;;;;;4886167;29;20380;-35
2023/07/22 12:02:18;;;;;;;11.90;10.75;;;16.70;99.90;;;;;;4868823;29;20088;-35
2023/07/22 12:05:04;;;;;;;11.95;10.20;;;16.60;99.90;;;;;;4887401;29;20076;-35
2023/07/22 12:07:31;;;;;;;10.73;9.80;;;16.70;99.90;;;;;;4885902;29;20555;-35
2023/07/22 12:09:59;;;;;;;12.30;10.60;;;16.60;99.90;;;;;;4883073;29;20041;-35
2023/07/22 12:12:41;;;;;;;11.40;10.30;;;16.70;99.90;;;;;;4883356;29;20403;-35
2023/07/22 12:15:18;;;;;;;10.80;9.73;;;16.80;99.90;;;;;;4885290;29;20131;-35
2023/07/22 12:17:53;;;;;;;9.55;8.57;;;16.80;99.90;;;;;;4882541;29;20044;-36
2023/07/22 12:20:27;;;;;;;9.48;8.38;;;16.80;99.90;;;;;;4887546;29;20521;-35
2023/07/22 12:22:53;;;;;;;8.65;7.95;;;16.80;99.90;;;;;;4875747;29;20052;-36
2023/07/22 12:25:20;;;;;;;9.80;8.40;;;16.80;99.90;;;;;;4886345;29;20088;-36
2023/07/22 12:27:46;;;;;;;10.15;9.15;;;16.80;99.90;;;;;;4878868;29;20368;-38
2023/07/22 12:30:12;;;;;;;10.55;9.55;;;16.70;99.90;;;;;;4881903;29;20037;-35
2023/07/22 12:32:38;;;;;;;10.75;9.75;;;16.70;99.90;;;;;;4889221;29;20036;-34
2023/07/22 12:35:04;;;;;;;9.55;8.65;;;16.60;99.90;;;;;;4880459;29;20045;-34